Time;durP1;ratioP1;P1;durP2;ratioP2;P2;SDS_P1;SDS_P2;PMS_P1;PMS_P2;Temp;Humidity;BMP_temperature;BMP_pressure;BME280_temperature;BME280_humidity;BME280_pressure;Samples;Min_cycle;Max_cycle;Signal;HPM_P1;HPM_P2
2022/03/28 00:02:09;;;;;;;33.22;16.85;;;8.40;99.90;;;;;;5063700;28;20033;-71
2022/03/28 00:04:34;;;;;;;29.10;16.85;;;8.30;99.90;;;;;;5079288;28;20025;-73
2022/03/28 00:07:00;;;;;;;28.13;16.55;;;8.30;99.90;;;;;;5079267;28;20021;-72
2022/03/28 00:09:26;;;;;;;27.02;16.55;;;8.20;99.90;;;;;;5063280;28;20048;-72
2022/03/28 00:11:51;;;;;;;27.52;16.30;;;8.20;99.90;;;;;;5063677;28;20344;-72
2022/03/28 00:14:17;;;;;;;29.13;17.55;;;8.10;99.90;;;;;;5063630;28;20024;-71
2022/03/28 00:16:43;;;;;;;27.30;17.55;;;8.10;99.90;;;;;;5062682;28;20039;-70
2022/03/28 00:19:08;;;;;;;27.45;16.95;;;8.10;99.90;;;;;;5063449;28;20055;-71
2022/03/28 00:21:34;;;;;;;29.85;16.75;;;8.00;99.90;;;;;;5063439;28;20036;-71
2022/03/28 00:24:00;;;;;;;29.08;17.30;;;8.00;99.90;;;;;;5063677;28;20060;-70
2022/03/28 00:26:26;;;;;;;30.23;17.15;;;8.00;99.90;;;;;;5078999;28;20017;-70
2022/03/28 00:28:52;;;;;;;32.70;17.30;;;8.00;99.90;;;;;;5063472;28;20025;-70
2022/03/28 00:31:17;;;;;;;28.75;17.13;;;8.00;99.90;;;;;;5062853;28;20021;-70
2022/03/28 00:33:43;;;;;;;29.92;17.30;;;8.00;99.90;;;;;;5063449;28;20088;-72
2022/03/28 00:36:09;;;;;;;29.25;17.55;;;8.00;99.90;;;;;;5063327;28;20084;-70
2022/03/28 00:38:34;;;;;;;29.20;17.90;;;8.10;99.90;;;;;;5078894;28;20032;-70
2022/03/28 00:41:00;;;;;;;27.67;17.60;;;8.10;99.90;;;;;;5063218;28;20084;-72
2022/03/28 00:43:27;;;;;;;33.30;18.58;;;8.10;99.90;;;;;;5063313;28;20021;-70
2022/03/28 00:45:52;;;;;;;28.65;18.42;;;8.10;99.90;;;;;;5078584;28;20021;-69
2022/03/28 00:48:18;;;;;;;28.88;17.42;;;8.00;99.90;;;;;;5063045;28;20024;-70
2022/03/28 00:50:44;;;;;;;26.73;17.00;;;8.00;99.90;;;;;;5062254;28;20051;-70
2022/03/28 00:53:12;;;;;;;26.60;17.35;;;8.00;99.90;;;;;;5062954;28;20028;-69
2022/03/28 00:55:39;;;;;;;30.02;16.33;;;8.00;99.90;;;;;;5061513;28;20319;-70
2022/03/28 00:58:04;;;;;;;29.98;16.20;;;7.90;99.90;;;;;;5063388;28;20051;-71
2022/03/28 01:00:30;;;;;;;27.88;17.05;;;7.90;99.90;;;;;;5045031;28;20032;-71
2022/03/28 01:02:57;;;;;;;28.95;17.95;;;7.80;99.90;;;;;;5063264;28;20032;-70
2022/03/28 01:05:24;;;;;;;31.23;18.25;;;7.80;99.90;;;;;;5063138;28;20045;-72
2022/03/28 01:07:50;;;;;;;42.70;18.23;;;7.80;99.90;;;;;;5062033;28;20075;-72
2022/03/28 01:10:16;;;;;;;32.53;17.90;;;7.80;99.90;;;;;;5061774;28;20243;-69
2022/03/28 01:12:42;;;;;;;28.10;17.83;;;7.70;99.90;;;;;;5062831;28;20409;-71
2022/03/28 01:15:10;;;;;;;32.85;18.30;;;7.80;99.90;;;;;;5062777;28;20024;-70
2022/03/28 01:20:25;;;;;;;25.70;16.75;;;7.70;99.90;;;;;;5048224;28;20100;-70
2022/03/28 01:22:51;;;;;;;29.65;17.23;;;7.60;99.90;;;;;;5061510;28;20266;-70
2022/03/28 01:25:22;;;;;;;25.15;16.33;;;7.50;99.90;;;;;;5045210;28;20087;-71
2022/03/28 01:27:49;;;;;;;26.73;16.10;;;7.50;99.90;;;;;;5062178;28;20087;-71
2022/03/28 01:30:15;;;;;;;29.38;17.33;;;7.50;99.90;;;;;;5061270;28;20667;-72
2022/03/28 01:32:41;;;;;;;25.88;16.60;;;7.40;99.90;;;;;;5062038;28;20024;-70
2022/03/28 01:35:06;;;;;;;28.85;16.77;;;7.40;99.90;;;;;;5089115;28;20063;-70
2022/03/28 01:37:32;;;;;;;25.73;16.75;;;7.40;99.90;;;;;;5065511;28;20033;-70
2022/03/28 01:39:58;;;;;;;31.33;17.98;;;7.30;99.90;;;;;;5066103;28;20055;-70
2022/03/28 01:42:24;;;;;;;31.40;17.27;;;7.40;99.90;;;;;;5064776;28;20029;-70
2022/03/28 01:44:51;;;;;;;26.85;17.33;;;7.40;99.90;;;;;;5048395;28;20020;-71
2022/03/28 01:47:17;;;;;;;28.98;18.25;;;7.40;99.90;;;;;;5066553;28;20028;-71
2022/03/28 01:49:43;;;;;;;31.08;17.15;;;7.30;99.90;;;;;;5081810;28;20023;-72
2022/03/28 01:52:08;;;;;;;32.58;17.10;;;7.30;99.90;;;;;;5066053;28;20029;-70
2022/03/28 01:54:34;;;;;;;32.75;18.85;;;7.30;99.90;;;;;;5066271;28;20328;-70
2022/03/28 01:57:00;;;;;;;32.00;18.88;;;7.30;99.90;;;;;;5080255;28;20021;-71
2022/03/28 01:59:25;;;;;;;33.00;19.30;;;7.40;99.90;;;;;;5081426;28;20207;-70
2022/03/28 02:01:51;;;;;;;32.67;19.48;;;7.40;99.90;;;;;;5072672;28;20242;-70
2022/03/28 02:04:17;;;;;;;39.70;22.52;;;7.40;99.90;;;;;;5086025;28;20052;-69
2022/03/28 02:06:42;;;;;;;38.53;22.58;;;7.40;99.90;;;;;;5084761;28;20025;-70
2022/03/28 02:09:08;;;;;;;37.10;21.75;;;7.40;99.90;;;;;;5101536;28;20024;-70
2022/03/28 02:11:34;;;;;;;34.83;21.10;;;7.40;99.90;;;;;;5084253;28;20024;-70
2022/03/28 02:14:00;;;;;;;36.05;21.73;;;7.40;99.90;;;;;;5084764;28;20048;-71
2022/03/28 02:16:26;;;;;;;39.38;21.88;;;7.40;99.90;;;;;;5085923;28;20028;-71
2022/03/28 02:18:51;;;;;;;36.35;21.23;;;7.30;99.90;;;;;;5085775;28;20020;-70
2022/03/28 02:21:17;;;;;;;35.08;20.13;;;7.40;99.90;;;;;;5085424;28;20028;-71
2022/03/28 02:23:43;;;;;;;36.10;20.95;;;7.30;99.90;;;;;;5101578;28;20021;-71
2022/03/28 02:26:09;;;;;;;32.90;20.70;;;7.30;99.90;;;;;;5085666;28;20036;-70
2022/03/28 02:28:35;;;;;;;32.38;19.15;;;7.30;99.90;;;;;;5085563;28;20087;-69
2022/03/28 02:31:00;;;;;;;36.50;19.67;;;7.20;99.90;;;;;;5085455;28;20244;-70
2022/03/28 02:33:26;;;;;;;33.90;21.27;;;7.20;99.90;;;;;;5084232;28;20038;-70
2022/03/28 02:35:52;;;;;;;33.22;19.70;;;7.10;99.90;;;;;;5067596;28;20043;-70
2022/03/28 02:38:17;;;;;;;35.72;20.55;;;7.10;99.90;;;;;;5063939;28;20044;-70
2022/03/28 02:40:43;;;;;;;38.88;22.85;;;7.10;99.90;;;;;;5065291;28;20327;-71
2022/03/28 02:43:09;;;;;;;41.67;22.88;;;7.00;99.90;;;;;;5064912;28;20092;-70
2022/03/28 02:45:36;;;;;;;43.83;23.98;;;7.10;99.90;;;;;;5064176;28;20024;-71
2022/03/28 02:48:04;;;;;;;40.15;23.35;;;7.10;99.90;;;;;;5065104;28;20054;-70
2022/03/28 02:50:31;;;;;;;44.53;24.13;;;7.30;99.90;;;;;;5064241;28;20020;-71
2022/03/28 02:52:57;;;;;;;40.65;23.20;;;7.30;99.90;;;;;;5047298;28;20205;-72
2022/03/28 02:55:23;;;;;;;39.38;23.33;;;7.40;99.90;;;;;;5046930;28;20056;-70
2022/03/28 02:57:49;;;;;;;38.63;23.15;;;7.50;99.90;;;;;;5063583;28;20048;-70
2022/03/28 03:00:15;;;;;;;40.75;22.77;;;7.60;99.90;;;;;;5047380;28;20308;-71
2022/03/28 03:02:42;;;;;;;39.10;22.60;;;7.70;99.90;;;;;;5064644;28;20047;-71
2022/03/28 03:05:09;;;;;;;37.97;22.38;;;7.80;99.90;;;;;;5063848;28;20075;-72
2022/03/28 03:07:35;;;;;;;50.50;27.23;;;7.90;99.90;;;;;;5064721;28;20020;-71
2022/03/28 03:10:02;;;;;;;55.40;28.33;;;7.90;99.90;;;;;;5046468;28;20021;-70
2022/03/28 03:12:27;;;;;;;67.13;31.00;;;7.90;99.90;;;;;;5064513;28;20312;-71
2022/03/28 03:14:53;;;;;;;62.28;29.95;;;7.90;99.90;;;;;;5063606;28;20060;-72
2022/03/28 03:17:20;;;;;;;67.15;30.77;;;7.90;99.90;;;;;;5046885;28;20032;-72
2022/03/28 03:19:45;;;;;;;70.85;30.95;;;7.90;99.90;;;;;;5064781;28;20088;-72
2022/03/28 03:22:14;;;;;;;77.82;33.08;;;8.00;99.90;;;;;;5063195;28;20044;-71
2022/03/28 03:24:41;;;;;;;68.68;31.90;;;8.00;99.90;;;;;;5063385;28;20021;-72
2022/03/28 03:27:07;;;;;;;63.67;30.52;;;8.00;99.90;;;;;;5063363;28;20055;-70
2022/03/28 03:29:34;;;;;;;66.25;30.73;;;8.00;99.90;;;;;;5063237;28;20048;-71
2022/03/28 03:31:59;;;;;;;66.03;30.63;;;7.90;99.90;;;;;;5062985;28;20043;-72
2022/03/28 03:34:25;;;;;;;70.10;30.65;;;7.90;99.90;;;;;;5064290;28;20204;-71
2022/03/28 03:36:50;;;;;;;68.72;32.30;;;7.90;99.90;;;;;;5079939;28;20029;-72
2022/03/28 03:39:16;;;;;;;68.10;31.52;;;7.90;99.90;;;;;;5062725;28;20104;-71
2022/03/28 03:41:42;;;;;;;66.07;30.85;;;7.90;99.90;;;;;;5064168;28;20327;-69
2022/03/28 03:44:09;;;;;;;69.50;33.45;;;7.90;99.90;;;;;;5063850;28;20025;-73
2022/03/28 03:46:35;;;;;;;75.75;33.30;;;7.90;99.90;;;;;;5079445;28;20087;-71
2022/03/28 03:49:00;;;;;;;69.10;33.20;;;7.90;99.90;;;;;;5063079;28;20189;-72
2022/03/28 03:51:26;;;;;;;63.58;31.60;;;7.90;99.90;;;;;;5062890;28;20035;-72
2022/03/28 03:53:52;;;;;;;65.57;31.48;;;7.80;99.90;;;;;;5063915;28;20028;-71
2022/03/28 03:56:18;;;;;;;58.75;30.98;;;7.80;99.90;;;;;;5063752;28;20304;-74
2022/03/28 03:58:43;;;;;;;54.80;29.38;;;7.80;99.90;;;;;;5060969;28;20032;-73
2022/03/28 04:01:09;;;;;;;53.05;29.08;;;7.80;99.90;;;;;;5063884;28;20215;-71
2022/03/28 04:03:36;;;;;;;59.53;29.05;;;7.70;99.90;;;;;;5063719;28;20021;-72
2022/03/28 04:06:02;;;;;;;53.95;29.15;;;7.60;99.90;;;;;;5063713;28;20021;-72
2022/03/28 04:08:28;;;;;;;48.72;27.77;;;7.60;99.90;;;;;;5063228;28;20029;-73
2022/03/28 04:10:54;;;;;;;50.10;28.67;;;7.70;99.90;;;;;;5063792;28;20021;-72
2022/03/28 04:13:21;;;;;;;57.80;29.27;;;7.60;99.90;;;;;;5063251;28;20027;-71
2022/03/28 04:15:46;;;;;;;68.32;32.53;;;7.60;99.90;;;;;;5079357;28;20281;-71
2022/03/28 04:18:12;;;;;;;64.78;30.60;;;7.60;99.90;;;;;;5063817;28;20021;-70
2022/03/28 04:20:38;;;;;;;53.80;27.00;;;7.60;99.90;;;;;;5063649;28;20075;-71
2022/03/28 04:23:04;;;;;;;52.65;28.27;;;7.50;99.90;;;;;;5061920;28;20017;-71
2022/03/28 04:25:30;;;;;;;53.25;28.52;;;7.50;99.90;;;;;;5062614;28;20032;-73
2022/03/28 04:27:55;;;;;;;50.30;28.17;;;7.40;99.90;;;;;;5062276;28;20066;-71
2022/03/28 04:30:22;;;;;;;49.13;27.80;;;7.50;99.90;;;;;;5062499;28;20017;-71
2022/03/28 04:32:48;;;;;;;50.50;27.70;;;7.30;99.90;;;;;;5079107;28;20028;-71
2022/03/28 04:35:14;;;;;;;51.33;28.52;;;7.20;99.90;;;;;;5061932;28;20021;-71
2022/03/28 04:37:42;;;;;;;48.60;28.00;;;7.20;99.90;;;;;;5062295;28;20100;-71
2022/03/28 04:40:11;;;;;;;60.47;28.40;;;7.20;99.90;;;;;;5063407;28;20035;-71
2022/03/28 04:42:37;;;;;;;49.45;27.48;;;7.20;99.90;;;;;;5062872;28;20312;-73
2022/03/28 04:45:05;;;;;;;50.35;27.13;;;7.20;99.90;;;;;;5062995;28;20108;-72
2022/03/28 04:47:31;;;;;;;51.42;27.33;;;7.20;99.90;;;;;;5092086;28;20016;-72
2022/03/28 04:49:57;;;;;;;51.80;27.58;;;7.20;99.90;;;;;;5083372;28;20360;-73
2022/03/28 04:52:23;;;;;;;53.60;28.33;;;7.10;99.90;;;;;;5082198;28;20022;-73
2022/03/28 04:54:49;;;;;;;47.45;27.38;;;7.10;99.90;;;;;;5083021;28;20112;-70
2022/03/28 04:57:14;;;;;;;53.22;27.95;;;7.10;99.90;;;;;;5083238;28;20020;-73
2022/03/28 04:59:40;;;;;;;52.03;26.33;;;7.20;99.90;;;;;;5097070;28;20039;-71
2022/03/28 05:02:06;;;;;;;52.15;27.33;;;7.20;99.90;;;;;;5082065;28;20032;-71
2022/03/28 05:04:32;;;;;;;49.92;27.25;;;7.10;99.90;;;;;;5082988;28;20324;-72
2022/03/28 05:06:58;;;;;;;56.63;28.27;;;7.00;99.90;;;;;;5083231;28;20040;-73
2022/03/28 05:09:24;;;;;;;60.92;29.67;;;6.90;99.90;;;;;;5085816;28;20185;-73
2022/03/28 05:11:49;;;;;;;52.65;27.58;;;6.90;99.90;;;;;;5086992;28;20096;-73
2022/03/28 05:14:15;;;;;;;59.95;28.33;;;6.90;99.90;;;;;;5102461;28;20207;-70
2022/03/28 05:16:41;;;;;;;111.00;29.00;;;6.90;99.90;;;;;;5085904;28;20025;-72
2022/03/28 05:19:07;;;;;;;59.30;27.48;;;6.90;99.90;;;;;;5086885;28;20028;-71
2022/03/28 05:21:32;;;;;;;57.78;27.05;;;6.90;99.90;;;;;;5086791;28;20287;-72
2022/03/28 05:23:58;;;;;;;64.10;28.70;;;6.80;99.90;;;;;;5085573;28;20035;-73
2022/03/28 05:26:26;;;;;;;92.93;29.63;;;6.80;99.90;;;;;;5086395;28;20024;-71
2022/03/28 05:28:52;;;;;;;82.72;30.60;;;6.70;99.90;;;;;;5085900;28;20101;-73
2022/03/28 05:31:17;;;;;;;110.80;30.08;;;6.70;99.90;;;;;;5086289;28;20052;-71
2022/03/28 05:33:43;;;;;;;65.20;30.13;;;6.80;99.90;;;;;;5086545;28;20052;-72
2022/03/28 05:36:09;;;;;;;70.93;27.23;;;6.80;99.90;;;;;;5065833;28;20028;-71
2022/03/28 05:38:35;;;;;;;61.42;27.38;;;6.90;99.90;;;;;;5065762;28;20185;-70
2022/03/28 05:41:01;;;;;;;82.60;26.58;;;6.90;99.90;;;;;;5066224;28;20043;-71
2022/03/28 05:43:26;;;;;;;73.28;25.15;;;6.90;99.90;;;;;;5065830;28;20070;-70
2022/03/28 05:45:52;;;;;;;75.55;25.42;;;6.80;99.90;;;;;;5064795;28;20023;-71
2022/03/28 05:48:19;;;;;;;90.55;26.58;;;6.80;99.90;;;;;;5086162;28;20024;-71
2022/03/28 05:50:46;;;;;;;60.60;26.42;;;6.70;99.90;;;;;;5085169;28;20027;-72
2022/03/28 05:53:13;;;;;;;57.75;25.75;;;6.70;99.90;;;;;;5101663;28;20024;-70
2022/03/28 05:55:40;;;;;;;57.15;23.88;;;6.70;99.90;;;;;;5101376;28;20040;-71
2022/03/28 05:58:08;;;;;;;51.67;26.13;;;6.70;99.90;;;;;;5085993;28;20048;-70
2022/03/28 06:00:34;;;;;;;43.50;24.60;;;6.70;99.90;;;;;;5083806;28;20050;-71
2022/03/28 06:03:00;;;;;;;47.25;24.40;;;6.70;99.90;;;;;;5086036;28;20021;-71
2022/03/28 06:05:26;;;;;;;42.17;24.38;;;6.70;99.90;;;;;;5085937;28;20020;-72
2022/03/28 06:07:51;;;;;;;52.67;26.02;;;6.60;99.90;;;;;;5085913;28;20028;-72
2022/03/28 06:10:17;;;;;;;44.55;23.80;;;6.50;99.90;;;;;;5084583;28;20019;-72
2022/03/28 06:12:43;;;;;;;40.08;22.40;;;6.60;99.90;;;;;;5084696;28;20081;-71
2022/03/28 06:15:09;;;;;;;45.35;23.00;;;6.70;99.90;;;;;;5085654;28;20088;-73
2022/03/28 06:17:35;;;;;;;39.00;20.80;;;6.70;99.90;;;;;;5084738;28;20040;-72
2022/03/28 06:20:05;;;;;;;32.10;20.98;;;6.90;99.90;;;;;;5084527;28;20296;-73
2022/03/28 06:22:30;;;;;;;33.42;20.40;;;7.00;99.90;;;;;;5084358;28;20078;-71
2022/03/28 06:24:56;;;;;;;31.52;19.83;;;6.90;99.90;;;;;;5084478;28;20024;-71
2022/03/28 06:27:24;;;;;;;31.40;19.80;;;6.80;99.90;;;;;;5085455;28;20032;-72
2022/03/28 06:29:51;;;;;;;33.38;19.25;;;6.80;99.90;;;;;;5084675;28;20204;-72
2022/03/28 06:32:17;;;;;;;34.72;19.27;;;6.80;99.90;;;;;;5101159;28;20097;-73
2022/03/28 06:34:42;;;;;;;32.50;18.60;;;6.80;99.90;;;;;;5085370;28;20016;-71
2022/03/28 06:37:08;;;;;;;30.95;17.13;;;6.80;99.90;;;;;;5085335;28;20028;-71
2022/03/28 06:39:35;;;;;;;28.05;17.25;;;6.70;99.90;;;;;;5085179;28;20084;-71
2022/03/28 06:42:01;;;;;;;24.83;16.63;;;6.70;99.90;;;;;;5085054;28;20066;-73
2022/03/28 06:44:26;;;;;;;25.63;16.65;;;6.70;99.90;;;;;;5085176;28;20020;-72
2022/03/28 06:46:52;;;;;;;26.60;17.02;;;6.70;99.90;;;;;;5084738;28;20075;-73
2022/03/28 06:49:18;;;;;;;26.52;16.10;;;6.80;99.90;;;;;;5084071;28;20198;-74
2022/03/28 06:51:44;;;;;;;27.00;17.52;;;6.80;99.90;;;;;;5085090;28;20024;-73
2022/03/28 06:54:10;;;;;;;27.58;16.20;;;6.90;99.90;;;;;;5084980;28;20067;-73
2022/03/28 06:56:36;;;;;;;28.38;16.92;;;6.90;99.90;;;;;;5067205;28;20013;-72
2022/03/28 06:59:02;;;;;;;25.05;16.15;;;6.80;99.90;;;;;;5084440;28;20056;-72
2022/03/28 07:01:28;;;;;;;29.63;18.13;;;6.80;99.90;;;;;;5081596;28;20103;-70
2022/03/28 07:03:55;;;;;;;25.23;17.00;;;6.80;99.90;;;;;;5084474;28;20024;-72
2022/03/28 07:06:21;;;;;;;27.35;16.42;;;6.80;99.90;;;;;;5083603;28;20024;-71
2022/03/28 07:08:47;;;;;;;30.02;16.90;;;6.80;99.90;;;;;;5083097;28;20032;-71
2022/03/28 07:11:13;;;;;;;24.33;16.77;;;6.80;99.90;;;;;;5083300;28;20020;-73
2022/03/28 07:13:39;;;;;;;20.95;15.15;;;6.80;99.90;;;;;;5084377;28;20020;-72
2022/03/28 07:16:04;;;;;;;25.08;15.55;;;6.80;99.90;;;;;;5084607;28;20016;-74
2022/03/28 07:18:30;;;;;;;23.98;15.52;;;6.80;99.90;;;;;;5076607;28;20093;-71
2022/03/28 07:20:56;;;;;;;21.55;15.35;;;6.80;99.90;;;;;;5064329;28;20033;-71
2022/03/28 07:23:22;;;;;;;23.45;15.63;;;6.90;99.90;;;;;;5030117;28;20037;-70
2022/03/28 07:25:48;;;;;;;19.95;13.93;;;7.00;99.90;;;;;;5062946;28;20021;-69
2022/03/28 07:28:15;;;;;;;20.77;14.50;;;7.00;99.90;;;;;;5046489;28;20048;-69
2022/03/28 07:30:41;;;;;;;25.48;14.90;;;7.10;99.90;;;;;;5078995;28;20185;-69
2022/03/28 07:33:07;;;;;;;21.08;13.98;;;7.10;99.90;;;;;;5069860;28;20027;-69
2022/03/28 07:35:35;;;;;;;22.70;15.00;;;7.30;99.90;;;;;;5079470;28;20037;-71
2022/03/28 07:38:03;;;;;;;21.45;13.98;;;7.40;99.90;;;;;;5072235;28;20024;-70
2022/03/28 07:40:29;;;;;;;25.60;15.68;;;7.50;99.90;;;;;;5062569;28;20191;-73
2022/03/28 07:42:54;;;;;;;22.67;14.10;;;7.50;99.90;;;;;;5062480;28;20032;-69
2022/03/28 07:45:23;;;;;;;23.75;16.58;;;7.60;99.90;;;;;;5062369;28;20039;-69
2022/03/28 07:47:49;;;;;;;23.75;15.20;;;7.50;99.90;;;;;;5078482;28;20092;-72
2022/03/28 07:50:15;;;;;;;23.80;15.15;;;7.60;99.90;;;;;;5072081;28;20044;-72
2022/03/28 07:52:41;;;;;;;33.50;16.33;;;7.70;99.90;;;;;;5062939;28;20300;-71
2022/03/28 07:55:08;;;;;;;29.00;16.42;;;7.70;99.90;;;;;;5061872;28;20052;-71
2022/03/28 07:57:36;;;;;;;26.55;15.15;;;7.70;99.90;;;;;;5078395;28;20328;-71
2022/03/28 08:00:10;;;;;;;25.75;15.18;;;7.80;99.90;;;;;;5071850;28;20025;-73
2022/03/28 08:02:36;;;;;;;28.33;15.35;;;7.90;99.90;;;;;;5060296;28;20037;-70
2022/03/28 08:05:02;;;;;;;24.42;14.73;;;8.00;99.90;;;;;;5063047;28;20025;-72
2022/03/28 08:07:28;;;;;;;23.73;15.60;;;8.10;99.90;;;;;;5077560;28;20028;-70
2022/03/28 08:09:54;;;;;;;25.33;15.48;;;8.10;99.90;;;;;;5062641;28;20025;-71
2022/03/28 08:12:20;;;;;;;23.13;14.80;;;8.30;99.90;;;;;;5045127;28;20021;-70
2022/03/28 08:14:48;;;;;;;24.40;14.80;;;8.40;99.90;;;;;;5063242;28;20091;-69
2022/03/28 08:17:13;;;;;;;27.92;15.23;;;8.60;99.90;;;;;;5063057;28;20040;-71
2022/03/28 08:19:39;;;;;;;30.35;16.67;;;8.60;99.90;;;;;;5061783;28;20108;-71
2022/03/28 08:22:05;;;;;;;25.30;17.05;;;8.50;99.90;;;;;;5062854;28;20228;-71
2022/03/28 08:24:30;;;;;;;29.85;17.00;;;8.60;99.90;;;;;;5063002;28;20322;-72
2022/03/28 08:26:56;;;;;;;27.58;16.65;;;8.60;99.90;;;;;;5056873;28;20096;-70
2022/03/28 08:29:22;;;;;;;29.88;17.33;;;8.70;99.90;;;;;;5082995;28;20088;-71
2022/03/28 08:31:48;;;;;;;29.27;18.05;;;8.70;99.90;;;;;;5098485;28;20016;-71
2022/03/28 08:34:14;;;;;;;31.73;17.70;;;8.70;99.90;;;;;;5081681;28;20249;-70
2022/03/28 08:36:40;;;;;;;29.30;18.35;;;8.70;99.90;;;;;;5081250;28;20016;-71
2022/03/28 08:39:06;;;;;;;30.50;17.92;;;8.70;99.90;;;;;;5063986;28;20062;-71
2022/03/28 08:41:33;;;;;;;32.70;18.27;;;8.80;99.90;;;;;;5081394;28;20032;-71
2022/03/28 08:43:59;;;;;;;28.90;18.30;;;9.00;99.90;;;;;;5067143;28;20070;-70
2022/03/28 08:46:27;;;;;;;32.60;17.95;;;9.20;99.90;;;;;;5081137;28;20063;-71
2022/03/28 08:48:53;;;;;;;31.70;19.70;;;9.20;99.90;;;;;;5081939;28;20055;-71
2022/03/28 08:51:19;;;;;;;34.53;18.60;;;9.30;99.90;;;;;;5066931;28;20232;-69
2022/03/28 08:53:45;;;;;;;34.75;19.58;;;9.50;99.90;;;;;;5066790;28;20025;-71
2022/03/28 08:56:11;;;;;;;36.50;19.33;;;9.60;99.90;;;;;;5081984;28;20051;-74
2022/03/28 08:58:37;;;;;;;34.75;19.83;;;9.70;99.90;;;;;;5048328;28;20033;-70
2022/03/28 09:01:05;;;;;;;32.38;19.17;;;9.70;99.90;;;;;;5081588;28;20052;-70
2022/03/28 09:03:47;;;;;;;35.40;18.88;;;9.70;99.90;;;;;;5083487;28;20270;-72
2022/03/28 09:06:32;;;;;;;33.70;18.50;;;9.80;99.90;;;;;;5086340;28;20059;-72
2022/03/28 09:09:27;;;;;;;37.00;18.77;;;9.90;99.90;;;;;;5066021;28;20055;-71
2022/03/28 09:11:57;;;;;;;36.90;18.52;;;10.00;99.90;;;;;;5065380;28;20021;-70
2022/03/28 09:14:40;;;;;;;32.78;18.10;;;9.90;99.90;;;;;;5082403;28;20040;-71
2022/03/28 09:17:10;;;;;;;31.75;18.50;;;10.00;99.90;;;;;;5086283;28;20092;-71
2022/03/28 09:19:57;;;;;;;34.35;18.58;;;10.00;99.90;;;;;;5085947;28;20088;-70
2022/03/28 09:22:26;;;;;;;35.65;17.58;;;10.10;99.90;;;;;;5069728;28;20085;-70
2022/03/28 09:24:57;;;;;;;34.35;18.35;;;10.30;99.90;;;;;;5086514;28;20024;-71
2022/03/28 09:27:25;;;;;;;34.55;19.17;;;10.40;99.90;;;;;;5069390;28;20036;-70
2022/03/28 09:29:53;;;;;;;32.92;19.50;;;10.40;99.90;;;;;;5090329;28;20029;-73
2022/03/28 09:32:22;;;;;;;34.13;20.10;;;10.40;99.90;;;;;;5101819;28;20012;-73
2022/03/28 09:35:08;;;;;;;38.80;20.27;;;10.40;99.90;;;;;;5077663;28;20025;-69
2022/03/28 09:37:56;;;;;;;34.92;20.17;;;10.40;99.90;;;;;;5065836;28;20013;-70
2022/03/28 09:40:46;;;;;;;36.75;20.35;;;10.50;99.90;;;;;;5064478;28;20035;-73
2022/03/28 09:43:18;;;;;;;39.00;20.65;;;10.60;99.90;;;;;;5050299;28;20040;-71
2022/03/28 09:45:50;;;;;;;35.72;19.38;;;10.70;99.90;;;;;;5085799;28;20376;-71
2022/03/28 09:48:17;;;;;;;34.97;19.02;;;10.70;99.90;;;;;;5084426;28;20028;-72
2022/03/28 09:50:46;;;;;;;33.95;18.83;;;10.70;99.90;;;;;;5084535;28;20032;-69
2022/03/28 09:53:25;;;;;;;32.97;18.38;;;10.80;99.90;;;;;;5085719;28;20110;-72
2022/03/28 09:55:54;;;;;;;41.90;17.60;;;10.80;99.90;;;;;;5083768;28;20052;-71
2022/03/28 09:58:42;;;;;;;35.40;17.30;;;10.90;99.90;;;;;;5085538;28;20069;-72
2022/03/28 10:01:22;;;;;;;30.33;18.08;;;11.10;99.90;;;;;;5084373;28;20047;-74
2022/03/28 10:03:50;;;;;;;28.13;15.30;;;11.30;99.60;;;;;;5084065;28;20077;-70
2022/03/28 10:06:17;;;;;;;32.65;16.83;;;11.20;99.60;;;;;;5084397;28;20024;-70
2022/03/28 10:08:43;;;;;;;27.42;16.08;;;11.30;99.50;;;;;;5083564;28;20203;-72
2022/03/28 10:11:10;;;;;;;30.35;17.27;;;11.30;99.30;;;;;;5100645;28;20025;-70
2022/03/28 10:13:37;;;;;;;28.23;16.58;;;11.30;99.40;;;;;;5084190;28;20032;-69
2022/03/28 10:16:04;;;;;;;34.80;17.23;;;11.50;99.20;;;;;;5085707;28;20074;-71
2022/03/28 10:18:32;;;;;;;30.30;16.60;;;11.50;99.40;;;;;;5100927;28;20361;-70
2022/03/28 10:21:21;;;;;;;29.88;16.33;;;11.50;99.00;;;;;;5083391;28;20032;-72
2022/03/28 10:24:11;;;;;;;27.00;14.80;;;11.50;99.30;;;;;;5099299;28;20025;-70
2022/03/28 10:26:40;;;;;;;27.00;15.55;;;11.70;99.20;;;;;;5097531;28;20160;-70
2022/03/28 10:29:10;;;;;;;25.25;13.82;;;11.80;99.70;;;;;;5085147;28;20052;-70
2022/03/28 10:31:54;;;;;;;24.88;14.65;;;11.90;99.20;;;;;;5083380;28;20043;-72
2022/03/28 10:34:41;;;;;;;23.85;13.68;;;11.90;98.90;;;;;;5080288;28;20017;-72
2022/03/28 10:37:29;;;;;;;21.05;12.50;;;11.90;98.90;;;;;;5064831;28;20025;-70
2022/03/28 10:40:23;;;;;;;21.50;13.07;;;12.10;99.50;;;;;;5062696;28;20021;-72
2022/03/28 10:43:09;;;;;;;21.50;13.50;;;12.20;98.90;;;;;;5076631;28;20047;-70
2022/03/28 10:45:44;;;;;;;20.20;12.20;;;12.30;98.60;;;;;;5046581;28;20035;-70
2022/03/28 10:48:10;;;;;;;21.02;12.77;;;12.30;99.20;;;;;;5064515;28;20052;-70
2022/03/28 10:50:43;;;;;;;19.55;11.95;;;12.40;99.00;;;;;;5079884;28;20029;-70
2022/03/28 10:53:13;;;;;;;16.70;10.57;;;12.60;98.50;;;;;;5063141;28;20021;-70
2022/03/28 10:55:49;;;;;;;19.00;11.35;;;12.70;98.40;;;;;;5079448;28;20279;-69
2022/03/28 10:58:23;;;;;;;22.63;12.60;;;12.80;98.40;;;;;;5079864;28;20017;-73
2022/03/28 11:01:17;;;;;;;18.83;11.93;;;13.00;97.90;;;;;;5078759;28;20027;-72
2022/03/28 11:04:20;;;;;;;20.98;11.80;;;13.10;97.70;;;;;;5078444;28;20047;-70
2022/03/28 11:07:03;;;;;;;17.50;10.77;;;13.20;97.60;;;;;;5093880;28;20211;-71
2022/03/28 11:09:51;;;;;;;18.63;11.38;;;13.40;97.60;;;;;;5046330;28;20032;-72
2022/03/28 11:12:38;;;;;;;17.52;10.30;;;13.50;97.00;;;;;;5063538;28;20035;-72
2022/03/28 11:15:21;;;;;;;16.70;10.60;;;13.50;97.00;;;;;;5082695;28;20020;-72
2022/03/28 11:17:58;;;;;;;18.15;10.73;;;13.50;97.40;;;;;;5083069;28;20087;-73
2022/03/28 11:20:27;;;;;;;21.67;10.52;;;13.50;97.10;;;;;;5057560;28;20050;-70
2022/03/28 11:22:56;;;;;;;19.45;10.73;;;13.70;96.90;;;;;;5062567;28;20327;-70
2022/03/28 11:25:46;;;;;;;20.48;10.82;;;13.70;96.90;;;;;;5063957;28;20103;-70
2022/03/28 11:28:32;;;;;;;17.13;10.70;;;13.90;96.50;;;;;;5049478;28;20028;-71
2022/03/28 11:31:08;;;;;;;20.13;10.45;;;14.10;96.40;;;;;;5063936;28;20208;-71
2022/03/28 11:33:46;;;;;;;15.13;9.35;;;14.30;96.20;;;;;;5063049;28;20096;-72
2022/03/28 11:36:15;;;;;;;14.60;9.68;;;14.40;95.80;;;;;;5063057;28;20099;-71
2022/03/28 11:38:44;;;;;;;15.25;9.23;;;14.40;95.50;;;;;;5063631;28;20039;-71
2022/03/28 11:41:12;;;;;;;15.75;10.43;;;14.60;96.00;;;;;;5062218;28;20051;-71
2022/03/28 11:43:42;;;;;;;17.17;8.15;;;14.70;95.40;;;;;;5062479;28;20029;-71
2022/03/28 11:46:17;;;;;;;15.07;8.43;;;14.70;95.00;;;;;;5063591;28;20095;-71
2022/03/28 11:48:57;;;;;;;12.48;8.15;;;14.80;95.00;;;;;;5046051;28;20025;-72
2022/03/28 11:51:25;;;;;;;14.07;8.73;;;14.90;94.80;;;;;;5062000;28;20025;-71
2022/03/28 11:53:51;;;;;;;16.20;8.98;;;15.10;94.50;;;;;;5062288;28;20032;-70
2022/03/28 11:59:24;;;;;;;23.13;10.63;;;15.20;94.30;;;;;;5050598;28;20032;-71
2022/03/28 12:02:06;;;;;;;17.05;9.98;;;15.20;94.20;;;;;;5063131;28;20197;-70
2022/03/28 12:04:33;;;;;;;21.00;11.57;;;15.40;93.90;;;;;;5061545;28;20301;-71
2022/03/28 12:06:58;;;;;;;16.73;10.82;;;15.40;93.60;;;;;;5083151;28;20048;-72
2022/03/28 12:09:24;;;;;;;16.70;10.10;;;15.30;94.20;;;;;;5081165;28;20027;-71
2022/03/28 12:11:52;;;;;;;18.50;10.23;;;15.50;93.60;;;;;;5065079;28;20055;-69
2022/03/28 12:14:18;;;;;;;21.20;11.50;;;15.50;93.30;;;;;;5082117;28;20020;-70
2022/03/28 12:16:48;;;;;;;21.20;11.32;;;15.60;92.80;;;;;;5048664;28;20031;-71
2022/03/28 12:19:23;;;;;;;15.55;10.77;;;15.70;93.20;;;;;;5081684;28;20059;-73
2022/03/28 12:21:50;;;;;;;18.63;10.70;;;15.80;93.00;;;;;;5081566;28;20039;-69
2022/03/28 12:24:16;;;;;;;17.48;11.15;;;15.80;92.90;;;;;;5082974;28;20323;-71
2022/03/28 12:26:45;;;;;;;17.38;11.15;;;15.90;92.80;;;;;;5082836;28;20078;-69
2022/03/28 12:29:11;;;;;;;19.10;11.35;;;15.80;92.70;;;;;;5082174;28;20062;-71
2022/03/28 12:31:40;;;;;;;17.75;10.90;;;15.90;92.70;;;;;;5092694;28;20091;-71
2022/03/28 12:34:07;;;;;;;18.90;10.77;;;15.90;92.40;;;;;;5062799;28;20094;-70
2022/03/28 12:36:34;;;;;;;21.50;11.05;;;15.90;92.60;;;;;;5063005;28;20071;-70
2022/03/28 12:39:04;;;;;;;22.38;11.00;;;16.00;92.70;;;;;;5062377;28;20310;-68
2022/03/28 12:41:31;;;;;;;19.42;11.13;;;16.10;92.30;;;;;;5062754;28;20287;-71
2022/03/28 12:43:56;;;;;;;19.17;11.75;;;16.20;92.00;;;;;;5061448;28;20079;-72
2022/03/28 12:46:23;;;;;;;19.83;11.10;;;16.30;92.00;;;;;;5062667;28;20017;-70